sensor_id;sensor_type;location;lat;lon;timestamp;P1;durP1;ratioP1;P2;durP2;ratioP2
70997;SDS011;58663;52.040;4.634;2023-07-30T00:01:01;19.45;;;3.40;;
70997;SDS011;58663;52.040;4.634;2023-07-30T00:03:26;21.52;;;3.95;;
70997;SDS011;58663;52.040;4.634;2023-07-30T00:05:52;19.98;;;3.35;;
70997;SDS011;58663;52.040;4.634;2023-07-30T00:08:19;14.93;;;3.22;;
70997;SDS011;58663;52.040;4.634;2023-07-30T00:10:44;23.33;;;3.80;;
70997;SDS011;58663;52.040;4.634;2023-07-30T00:13:09;18.10;;;3.53;;
70997;SDS011;58663;52.040;4.634;2023-07-30T00:15:35;16.40;;;3.60;;
70997;SDS011;58663;52.040;4.634;2023-07-30T00:18:00;16.25;;;2.88;;
70997;SDS011;58663;52.040;4.634;2023-07-30T00:20:25;18.90;;;4.05;;
70997;SDS011;58663;52.040;4.634;2023-07-30T00:22:51;14.07;;;3.30;;
70997;SDS011;58663;52.040;4.634;2023-07-30T00:25:16;18.98;;;3.65;;
70997;SDS011;58663;52.040;4.634;2023-07-30T00:27:41;19.08;;;3.45;;
70997;SDS011;58663;52.040;4.634;2023-07-30T00:30:07;24.65;;;3.90;;
70997;SDS011;58663;52.040;4.634;2023-07-30T00:32:32;14.02;;;3.42;;
70997;SDS011;58663;52.040;4.634;2023-07-30T00:34:58;18.88;;;3.55;;
70997;SDS011;58663;52.040;4.634;2023-07-30T00:37:23;22.30;;;4.50;;
70997;SDS011;58663;52.040;4.634;2023-07-30T00:39:49;22.00;;;4.78;;
70997;SDS011;58663;52.040;4.634;2023-07-30T00:42:14;18.92;;;4.32;;
70997;SDS011;58663;52.040;4.634;2023-07-30T00:44:39;21.42;;;2.90;;
70997;SDS011;58663;52.040;4.634;2023-07-30T00:47:05;17.63;;;3.70;;
70997;SDS011;58663;52.040;4.634;2023-07-30T00:49:30;20.20;;;4.03;;
70997;SDS011;58663;52.040;4.634;2023-07-30T00:51:56;18.35;;;4.10;;
70997;SDS011;58663;52.040;4.634;2023-07-30T00:54:21;15.90;;;4.05;;
70997;SDS011;58663;52.040;4.634;2023-07-30T00:56:49;23.45;;;4.00;;
70997;SDS011;58663;52.040;4.634;2023-07-30T00:59:16;18.33;;;3.47;;
70997;SDS011;58663;52.040;4.634;2023-07-30T01:01:42;25.58;;;4.28;;
70997;SDS011;58663;52.040;4.634;2023-07-30T01:04:08;21.25;;;4.10;;
70997;SDS011;58663;52.040;4.634;2023-07-30T01:06:34;25.55;;;4.53;;
70997;SDS011;58663;52.040;4.634;2023-07-30T01:08:59;23.92;;;4.22;;
70997;SDS011;58663;52.040;4.634;2023-07-30T01:11:24;26.55;;;4.68;;
70997;SDS011;58663;52.040;4.634;2023-07-30T01:13:51;32.13;;;4.10;;
70997;SDS011;58663;52.040;4.634;2023-07-30T01:16:18;30.55;;;5.07;;
70997;SDS011;58663;52.040;4.634;2023-07-30T01:18:43;27.48;;;4.00;;
70997;SDS011;58663;52.040;4.634;2023-07-30T01:21:08;32.75;;;3.85;;
70997;SDS011;58663;52.040;4.634;2023-07-30T01:23:34;24.27;;;3.65;;
70997;SDS011;58663;52.040;4.634;2023-07-30T01:26:03;32.80;;;4.72;;
70997;SDS011;58663;52.040;4.634;2023-07-30T01:28:32;26.00;;;4.50;;
70997;SDS011;58663;52.040;4.634;2023-07-30T01:31:02;26.08;;;3.88;;
70997;SDS011;58663;52.040;4.634;2023-07-30T01:33:28;32.05;;;6.20;;
70997;SDS011;58663;52.040;4.634;2023-07-30T01:35:54;26.95;;;5.55;;
70997;SDS011;58663;52.040;4.634;2023-07-30T01:38:21;33.65;;;4.90;;
70997;SDS011;58663;52.040;4.634;2023-07-30T01:40:47;26.77;;;4.05;;
70997;SDS011;58663;52.040;4.634;2023-07-30T01:43:12;33.95;;;4.40;;
70997;SDS011;58663;52.040;4.634;2023-07-30T01:45:37;30.17;;;4.35;;
70997;SDS011;58663;52.040;4.634;2023-07-30T01:48:03;23.77;;;4.60;;
70997;SDS011;58663;52.040;4.634;2023-07-30T01:50:29;29.33;;;4.65;;
70997;SDS011;58663;52.040;4.634;2023-07-30T01:52:54;30.15;;;4.78;;
70997;SDS011;58663;52.040;4.634;2023-07-30T01:55:20;22.25;;;4.43;;
70997;SDS011;58663;52.040;4.634;2023-07-30T01:57:45;25.55;;;4.40;;
70997;SDS011;58663;52.040;4.634;2023-07-30T02:00:11;28.38;;;5.68;;
70997;SDS011;58663;52.040;4.634;2023-07-30T02:02:36;26.98;;;4.80;;
70997;SDS011;58663;52.040;4.634;2023-07-30T02:05:02;28.27;;;4.68;;
70997;SDS011;58663;52.040;4.634;2023-07-30T02:07:27;25.33;;;4.20;;
70997;SDS011;58663;52.040;4.634;2023-07-30T02:09:53;24.38;;;5.10;;
70997;SDS011;58663;52.040;4.634;2023-07-30T02:12:18;30.30;;;4.07;;
70997;SDS011;58663;52.040;4.634;2023-07-30T02:14:43;27.17;;;4.20;;
70997;SDS011;58663;52.040;4.634;2023-07-30T02:17:09;22.38;;;4.43;;
70997;SDS011;58663;52.040;4.634;2023-07-30T02:19:34;38.95;;;4.18;;
70997;SDS011;58663;52.040;4.634;2023-07-30T02:21:59;28.80;;;4.20;;
70997;SDS011;58663;52.040;4.634;2023-07-30T02:24:25;29.50;;;3.85;;
70997;SDS011;58663;52.040;4.634;2023-07-30T02:26:50;28.27;;;4.30;;
70997;SDS011;58663;52.040;4.634;2023-07-30T02:29:15;21.27;;;4.20;;
70997;SDS011;58663;52.040;4.634;2023-07-30T02:31:41;27.10;;;5.90;;
70997;SDS011;58663;52.040;4.634;2023-07-30T02:34:06;27.98;;;4.50;;
70997;SDS011;58663;52.040;4.634;2023-07-30T02:36:32;32.85;;;4.78;;
70997;SDS011;58663;52.040;4.634;2023-07-30T02:38:58;20.08;;;4.95;;
70997;SDS011;58663;52.040;4.634;2023-07-30T02:41:23;24.02;;;4.25;;
70997;SDS011;58663;52.040;4.634;2023-07-30T02:43:48;22.85;;;4.60;;
70997;SDS011;58663;52.040;4.634;2023-07-30T02:46:14;26.90;;;3.80;;
70997;SDS011;58663;52.040;4.634;2023-07-30T02:48:39;27.55;;;4.30;;
70997;SDS011;58663;52.040;4.634;2023-07-30T02:51:04;26.15;;;4.13;;
70997;SDS011;58663;52.040;4.634;2023-07-30T02:53:30;30.25;;;4.63;;
70997;SDS011;58663;52.040;4.634;2023-07-30T02:55:55;28.52;;;4.93;;
70997;SDS011;58663;52.040;4.634;2023-07-30T02:58:21;19.98;;;4.60;;
70997;SDS011;58663;52.040;4.634;2023-07-30T03:00:46;27.48;;;4.65;;
70997;SDS011;58663;52.040;4.634;2023-07-30T03:03:11;25.10;;;3.92;;
70997;SDS011;58663;52.040;4.634;2023-07-30T03:05:37;27.38;;;4.45;;
70997;SDS011;58663;52.040;4.634;2023-07-30T03:08:06;21.77;;;4.32;;
70997;SDS011;58663;52.040;4.634;2023-07-30T03:10:32;25.35;;;4.32;;
70997;SDS011;58663;52.040;4.634;2023-07-30T03:12:57;24.38;;;4.38;;
70997;SDS011;58663;52.040;4.634;2023-07-30T03:15:22;27.67;;;4.43;;
70997;SDS011;58663;52.040;4.634;2023-07-30T03:17:48;28.40;;;4.78;;
70997;SDS011;58663;52.040;4.634;2023-07-30T03:20:13;23.08;;;4.82;;
70997;SDS011;58663;52.040;4.634;2023-07-30T03:22:38;21.40;;;4.38;;
70997;SDS011;58663;52.040;4.634;2023-07-30T03:25:04;22.73;;;4.70;;
70997;SDS011;58663;52.040;4.634;2023-07-30T03:27:29;27.90;;;5.47;;
70997;SDS011;58663;52.040;4.634;2023-07-30T03:29:54;24.63;;;4.43;;
70997;SDS011;58663;52.040;4.634;2023-07-30T03:32:20;25.45;;;4.07;;
70997;SDS011;58663;52.040;4.634;2023-07-30T03:34:45;27.85;;;5.25;;
70997;SDS011;58663;52.040;4.634;2023-07-30T03:37:10;18.38;;;4.15;;
70997;SDS011;58663;52.040;4.634;2023-07-30T03:39:36;26.65;;;4.47;;
70997;SDS011;58663;52.040;4.634;2023-07-30T03:42:01;28.70;;;4.93;;
70997;SDS011;58663;52.040;4.634;2023-07-30T03:44:27;25.42;;;4.97;;
70997;SDS011;58663;52.040;4.634;2023-07-30T03:46:52;23.00;;;4.22;;
70997;SDS011;58663;52.040;4.634;2023-07-30T03:49:17;28.08;;;6.05;;
70997;SDS011;58663;52.040;4.634;2023-07-30T03:51:43;27.58;;;4.85;;
70997;SDS011;58663;52.040;4.634;2023-07-30T03:54:08;25.35;;;5.28;;
70997;SDS011;58663;52.040;4.634;2023-07-30T03:56:34;24.40;;;5.50;;
70997;SDS011;58663;52.040;4.634;2023-07-30T03:58:59;25.15;;;4.20;;
70997;SDS011;58663;52.040;4.634;2023-07-30T04:01:24;19.80;;;4.32;;
70997;SDS011;58663;52.040;4.634;2023-07-30T04:03:50;31.73;;;5.22;;
70997;SDS011;58663;52.040;4.634;2023-07-30T04:06:15;28.45;;;5.70;;
70997;SDS011;58663;52.040;4.634;2023-07-30T04:08:41;25.80;;;4.95;;
70997;SDS011;58663;52.040;4.634;2023-07-30T04:11:07;25.45;;;5.13;;
70997;SDS011;58663;52.040;4.634;2023-07-30T04:13:32;19.40;;;4.40;;
70997;SDS011;58663;52.040;4.634;2023-07-30T04:15:58;36.03;;;5.53;;
70997;SDS011;58663;52.040;4.634;2023-07-30T04:18:23;28.88;;;5.05;;
70997;SDS011;58663;52.040;4.634;2023-07-30T04:20:48;28.08;;;4.72;;
70997;SDS011;58663;52.040;4.634;2023-07-30T04:23:14;20.55;;;4.25;;
70997;SDS011;58663;52.040;4.634;2023-07-30T04:25:39;25.23;;;3.97;;
70997;SDS011;58663;52.040;4.634;2023-07-30T04:28:05;18.30;;;3.67;;
70997;SDS011;58663;52.040;4.634;2023-07-30T04:30:30;27.80;;;5.00;;
70997;SDS011;58663;52.040;4.634;2023-07-30T04:32:55;26.80;;;4.70;;
70997;SDS011;58663;52.040;4.634;2023-07-30T04:35:21;22.30;;;4.55;;
70997;SDS011;58663;52.040;4.634;2023-07-30T04:37:46;18.75;;;4.93;;
70997;SDS011;58663;52.040;4.634;2023-07-30T04:40:11;21.75;;;3.83;;
70997;SDS011;58663;52.040;4.634;2023-07-30T04:42:37;22.00;;;4.50;;
70997;SDS011;58663;52.040;4.634;2023-07-30T04:45:02;23.50;;;3.97;;
70997;SDS011;58663;52.040;4.634;2023-07-30T04:47:28;19.23;;;3.85;;
70997;SDS011;58663;52.040;4.634;2023-07-30T04:49:53;14.65;;;3.60;;
70997;SDS011;58663;52.040;4.634;2023-07-30T04:52:19;22.02;;;3.70;;
70997;SDS011;58663;52.040;4.634;2023-07-30T04:54:44;22.08;;;3.97;;
70997;SDS011;58663;52.040;4.634;2023-07-30T04:57:10;22.60;;;4.70;;
70997;SDS011;58663;52.040;4.634;2023-07-30T04:59:35;24.02;;;3.92;;
70997;SDS011;58663;52.040;4.634;2023-07-30T05:02:00;19.52;;;4.57;;
70997;SDS011;58663;52.040;4.634;2023-07-30T05:04:26;23.50;;;3.78;;
70997;SDS011;58663;52.040;4.634;2023-07-30T05:06:51;22.42;;;3.85;;
70997;SDS011;58663;52.040;4.634;2023-07-30T05:09:17;26.00;;;4.90;;
70997;SDS011;58663;52.040;4.634;2023-07-30T05:11:42;21.92;;;5.65;;
70997;SDS011;58663;52.040;4.634;2023-07-30T05:14:07;23.77;;;4.28;;
70997;SDS011;58663;52.040;4.634;2023-07-30T05:16:33;24.88;;;4.32;;
70997;SDS011;58663;52.040;4.634;2023-07-30T05:18:58;20.80;;;4.22;;
70997;SDS011;58663;52.040;4.634;2023-07-30T05:21:23;24.90;;;4.80;;
70997;SDS011;58663;52.040;4.634;2023-07-30T05:23:49;29.25;;;4.85;;
70997;SDS011;58663;52.040;4.634;2023-07-30T05:26:14;31.77;;;5.03;;
70997;SDS011;58663;52.040;4.634;2023-07-30T05:28:39;29.52;;;4.60;;
70997;SDS011;58663;52.040;4.634;2023-07-30T05:31:05;23.55;;;4.55;;
70997;SDS011;58663;52.040;4.634;2023-07-30T05:33:30;26.98;;;4.82;;
70997;SDS011;58663;52.040;4.634;2023-07-30T05:35:55;23.70;;;4.53;;
70997;SDS011;58663;52.040;4.634;2023-07-30T05:38:21;25.52;;;5.30;;
70997;SDS011;58663;52.040;4.634;2023-07-30T05:40:46;26.23;;;4.93;;
70997;SDS011;58663;52.040;4.634;2023-07-30T05:43:12;20.23;;;5.47;;
70997;SDS011;58663;52.040;4.634;2023-07-30T05:45:37;23.35;;;4.00;;
70997;SDS011;58663;52.040;4.634;2023-07-30T05:48:03;21.30;;;3.80;;
70997;SDS011;58663;52.040;4.634;2023-07-30T05:50:28;16.83;;;4.38;;
70997;SDS011;58663;52.040;4.634;2023-07-30T05:52:54;27.73;;;3.85;;
70997;SDS011;58663;52.040;4.634;2023-07-30T05:55:19;23.10;;;4.13;;
70997;SDS011;58663;52.040;4.634;2023-07-30T05:57:44;19.17;;;3.63;;
70997;SDS011;58663;52.040;4.634;2023-07-30T06:00:10;16.85;;;3.75;;
70997;SDS011;58663;52.040;4.634;2023-07-30T06:02:36;23.20;;;4.20;;
70997;SDS011;58663;52.040;4.634;2023-07-30T06:05:02;18.75;;;3.67;;
70997;SDS011;58663;52.040;4.634;2023-07-30T06:07:27;21.35;;;3.67;;
70997;SDS011;58663;52.040;4.634;2023-07-30T06:09:52;17.08;;;3.75;;
70997;SDS011;58663;52.040;4.634;2023-07-30T06:12:18;16.15;;;3.63;;
70997;SDS011;58663;52.040;4.634;2023-07-30T06:14:43;19.90;;;3.78;;
70997;SDS011;58663;52.040;4.634;2023-07-30T06:17:09;25.85;;;4.30;;
70997;SDS011;58663;52.040;4.634;2023-07-30T06:19:34;17.00;;;3.40;;
70997;SDS011;58663;52.040;4.634;2023-07-30T06:21:59;17.88;;;3.17;;
70997;SDS011;58663;52.040;4.634;2023-07-30T06:24:25;20.77;;;3.83;;
70997;SDS011;58663;52.040;4.634;2023-07-30T06:26:50;15.30;;;3.72;;
70997;SDS011;58663;52.040;4.634;2023-07-30T06:29:15;19.90;;;3.58;;
70997;SDS011;58663;52.040;4.634;2023-07-30T06:31:41;24.15;;;3.88;;
70997;SDS011;58663;52.040;4.634;2023-07-30T06:34:06;23.60;;;4.00;;
70997;SDS011;58663;52.040;4.634;2023-07-30T06:36:31;22.92;;;3.17;;
70997;SDS011;58663;52.040;4.634;2023-07-30T06:38:57;20.20;;;3.85;;
70997;SDS011;58663;52.040;4.634;2023-07-30T06:41:22;10.93;;;2.97;;
70997;SDS011;58663;52.040;4.634;2023-07-30T06:43:47;24.95;;;3.97;;
70997;SDS011;58663;52.040;4.634;2023-07-30T06:46:13;22.27;;;3.92;;
70997;SDS011;58663;52.040;4.634;2023-07-30T06:48:38;17.30;;;3.75;;
70997;SDS011;58663;52.040;4.634;2023-07-30T06:51:07;14.63;;;3.38;;
70997;SDS011;58663;52.040;4.634;2023-07-30T06:53:34;27.88;;;4.03;;
70997;SDS011;58663;52.040;4.634;2023-07-30T06:55:59;26.30;;;4.75;;
70997;SDS011;58663;52.040;4.634;2023-07-30T06:58:25;13.77;;;3.05;;
70997;SDS011;58663;52.040;4.634;2023-07-30T07:00:50;19.10;;;4.70;;
70997;SDS011;58663;52.040;4.634;2023-07-30T07:03:15;13.73;;;3.20;;
70997;SDS011;58663;52.040;4.634;2023-07-30T07:05:41;18.45;;;3.28;;
70997;SDS011;58663;52.040;4.634;2023-07-30T07:08:06;16.02;;;3.20;;
70997;SDS011;58663;52.040;4.634;2023-07-30T07:10:31;17.90;;;3.10;;
70997;SDS011;58663;52.040;4.634;2023-07-30T07:12:57;16.05;;;3.75;;
70997;SDS011;58663;52.040;4.634;2023-07-30T07:15:22;17.92;;;4.28;;
70997;SDS011;58663;52.040;4.634;2023-07-30T07:17:47;13.75;;;3.33;;
70997;SDS011;58663;52.040;4.634;2023-07-30T07:20:13;17.33;;;3.72;;
70997;SDS011;58663;52.040;4.634;2023-07-30T07:22:38;17.85;;;3.95;;
70997;SDS011;58663;52.040;4.634;2023-07-30T07:25:03;19.67;;;4.20;;
70997;SDS011;58663;52.040;4.634;2023-07-30T07:27:29;21.92;;;4.18;;
70997;SDS011;58663;52.040;4.634;2023-07-30T07:29:54;14.32;;;4.05;;
70997;SDS011;58663;52.040;4.634;2023-07-30T07:32:20;13.07;;;3.63;;
70997;SDS011;58663;52.040;4.634;2023-07-30T07:34:46;14.07;;;3.42;;
70997;SDS011;58663;52.040;4.634;2023-07-30T07:37:13;12.38;;;3.75;;
70997;SDS011;58663;52.040;4.634;2023-07-30T07:39:40;11.95;;;3.53;;
70997;SDS011;58663;52.040;4.634;2023-07-30T07:42:06;19.27;;;3.47;;
70997;SDS011;58663;52.040;4.634;2023-07-30T07:44:31;16.63;;;4.32;;
70997;SDS011;58663;52.040;4.634;2023-07-30T07:46:57;24.52;;;3.67;;
70997;SDS011;58663;52.040;4.634;2023-07-30T07:49:22;22.73;;;4.25;;
70997;SDS011;58663;52.040;4.634;2023-07-30T07:51:47;26.10;;;4.55;;
70997;SDS011;58663;52.040;4.634;2023-07-30T07:54:13;9.88;;;2.90;;
70997;SDS011;58663;52.040;4.634;2023-07-30T07:56:38;16.45;;;3.45;;
70997;SDS011;58663;52.040;4.634;2023-07-30T07:59:03;13.68;;;2.78;;
70997;SDS011;58663;52.040;4.634;2023-07-30T08:01:29;7.57;;;2.63;;
70997;SDS011;58663;52.040;4.634;2023-07-30T08:03:55;12.38;;;2.70;;
70997;SDS011;58663;52.040;4.634;2023-07-30T08:06:20;10.43;;;2.10;;
70997;SDS011;58663;52.040;4.634;2023-07-30T08:08:45;14.38;;;2.72;;
70997;SDS011;58663;52.040;4.634;2023-07-30T08:11:11;9.57;;;2.85;;
70997;SDS011;58663;52.040;4.634;2023-07-30T08:13:36;11.35;;;2.47;;
70997;SDS011;58663;52.040;4.634;2023-07-30T08:16:01;8.18;;;2.35;;
70997;SDS011;58663;52.040;4.634;2023-07-30T08:18:27;11.15;;;2.22;;
70997;SDS011;58663;52.040;4.634;2023-07-30T08:20:53;5.60;;;1.70;;
70997;SDS011;58663;52.040;4.634;2023-07-30T08:23:18;9.30;;;2.35;;
70997;SDS011;58663;52.040;4.634;2023-07-30T08:25:44;10.80;;;1.95;;
70997;SDS011;58663;52.040;4.634;2023-07-30T08:28:09;12.82;;;2.10;;
70997;SDS011;58663;52.040;4.634;2023-07-30T08:30:34;12.73;;;3.00;;
70997;SDS011;58663;52.040;4.634;2023-07-30T08:33:00;11.82;;;2.28;;
70997;SDS011;58663;52.040;4.634;2023-07-30T08:35:25;6.13;;;1.70;;
70997;SDS011;58663;52.040;4.634;2023-07-30T08:37:52;12.38;;;2.25;;
70997;SDS011;58663;52.040;4.634;2023-07-30T08:40:17;10.52;;;2.10;;
70997;SDS011;58663;52.040;4.634;2023-07-30T08:42:43;9.13;;;1.92;;
70997;SDS011;58663;52.040;4.634;2023-07-30T08:45:08;17.75;;;2.60;;
70997;SDS011;58663;52.040;4.634;2023-07-30T08:47:34;10.93;;;2.38;;
70997;SDS011;58663;52.040;4.634;2023-07-30T08:50:00;8.35;;;1.98;;
70997;SDS011;58663;52.040;4.634;2023-07-30T08:52:26;14.65;;;1.83;;
70997;SDS011;58663;52.040;4.634;2023-07-30T08:54:51;17.33;;;2.38;;
70997;SDS011;58663;52.040;4.634;2023-07-30T08:57:17;12.88;;;2.30;;
70997;SDS011;58663;52.040;4.634;2023-07-30T08:59:47;14.63;;;2.17;;
70997;SDS011;58663;52.040;4.634;2023-07-30T09:02:22;12.57;;;2.53;;
70997;SDS011;58663;52.040;4.634;2023-07-30T09:04:56;9.02;;;2.10;;
70997;SDS011;58663;52.040;4.634;2023-07-30T09:07:26;10.98;;;2.10;;
70997;SDS011;58663;52.040;4.634;2023-07-30T09:09:51;11.20;;;2.30;;
70997;SDS011;58663;52.040;4.634;2023-07-30T09:12:17;8.10;;;1.92;;
70997;SDS011;58663;52.040;4.634;2023-07-30T09:14:42;9.93;;;2.00;;
70997;SDS011;58663;52.040;4.634;2023-07-30T09:17:16;9.18;;;2.33;;
70997;SDS011;58663;52.040;4.634;2023-07-30T09:19:42;13.52;;;2.75;;
70997;SDS011;58663;52.040;4.634;2023-07-30T09:22:07;11.60;;;2.25;;
70997;SDS011;58663;52.040;4.634;2023-07-30T09:24:33;12.93;;;1.85;;
70997;SDS011;58663;52.040;4.634;2023-07-30T09:27:01;9.07;;;1.52;;
70997;SDS011;58663;52.040;4.634;2023-07-30T09:29:27;8.98;;;2.15;;
70997;SDS011;58663;52.040;4.634;2023-07-30T09:31:53;14.55;;;2.20;;
70997;SDS011;58663;52.040;4.634;2023-07-30T09:34:20;11.38;;;2.63;;
70997;SDS011;58663;52.040;4.634;2023-07-30T09:36:46;11.55;;;2.25;;
70997;SDS011;58663;52.040;4.634;2023-07-30T09:39:16;9.25;;;1.90;;
70997;SDS011;58663;52.040;4.634;2023-07-30T09:41:43;7.65;;;1.60;;
70997;SDS011;58663;52.040;4.634;2023-07-30T09:44:08;9.68;;;2.17;;
70997;SDS011;58663;52.040;4.634;2023-07-30T09:46:38;12.05;;;2.25;;
70997;SDS011;58663;52.040;4.634;2023-07-30T09:49:08;7.93;;;1.50;;
70997;SDS011;58663;52.040;4.634;2023-07-30T09:51:33;6.63;;;2.00;;
70997;SDS011;58663;52.040;4.634;2023-07-30T09:53:59;8.68;;;1.58;;
70997;SDS011;58663;52.040;4.634;2023-07-30T09:56:25;9.43;;;2.10;;
70997;SDS011;58663;52.040;4.634;2023-07-30T09:58:50;9.65;;;2.33;;
70997;SDS011;58663;52.040;4.634;2023-07-30T10:01:16;10.18;;;2.08;;
70997;SDS011;58663;52.040;4.634;2023-07-30T10:03:43;10.73;;;1.88;;
70997;SDS011;58663;52.040;4.634;2023-07-30T10:06:08;9.80;;;2.13;;
70997;SDS011;58663;52.040;4.634;2023-07-30T10:08:37;7.70;;;1.85;;
70997;SDS011;58663;52.040;4.634;2023-07-30T10:11:04;7.25;;;1.60;;
70997;SDS011;58663;52.040;4.634;2023-07-30T10:13:30;9.75;;;2.25;;
70997;SDS011;58663;52.040;4.634;2023-07-30T10:15:56;6.82;;;1.55;;
70997;SDS011;58663;52.040;4.634;2023-07-30T10:18:32;8.05;;;1.83;;
70997;SDS011;58663;52.040;4.634;2023-07-30T10:21:08;9.00;;;1.60;;
70997;SDS011;58663;52.040;4.634;2023-07-30T10:23:35;7.65;;;1.77;;
70997;SDS011;58663;52.040;4.634;2023-07-30T10:26:08;7.60;;;1.95;;
70997;SDS011;58663;52.040;4.634;2023-07-30T10:28:35;12.25;;;2.05;;
70997;SDS011;58663;52.040;4.634;2023-07-30T10:31:06;11.68;;;1.98;;
70997;SDS011;58663;52.040;4.634;2023-07-30T10:33:43;6.28;;;1.77;;
70997;SDS011;58663;52.040;4.634;2023-07-30T10:36:10;10.93;;;2.05;;
70997;SDS011;58663;52.040;4.634;2023-07-30T10:38:36;7.50;;;2.20;;
70997;SDS011;58663;52.040;4.634;2023-07-30T10:43:33;9.20;;;2.13;;
70997;SDS011;58663;52.040;4.634;2023-07-30T10:46:00;9.05;;;2.17;;
70997;SDS011;58663;52.040;4.634;2023-07-30T10:51:01;7.28;;;2.00;;
70997;SDS011;58663;52.040;4.634;2023-07-30T10:53:30;10.20;;;2.05;;
70997;SDS011;58663;52.040;4.634;2023-07-30T10:55:59;7.55;;;1.90;;
70997;SDS011;58663;52.040;4.634;2023-07-30T10:58:26;5.90;;;1.58;;
70997;SDS011;58663;52.040;4.634;2023-07-30T11:00:53;5.57;;;1.73;;
70997;SDS011;58663;52.040;4.634;2023-07-30T11:03:18;6.65;;;1.60;;
70997;SDS011;58663;52.040;4.634;2023-07-30T11:05:47;8.65;;;1.60;;
70997;SDS011;58663;52.040;4.634;2023-07-30T11:08:13;9.65;;;1.50;;
70997;SDS011;58663;52.040;4.634;2023-07-30T11:10:45;9.75;;;1.65;;
70997;SDS011;58663;52.040;4.634;2023-07-30T11:13:12;4.35;;;1.73;;
70997;SDS011;58663;52.040;4.634;2023-07-30T11:15:44;6.72;;;2.08;;
70997;SDS011;58663;52.040;4.634;2023-07-30T11:18:10;12.15;;;1.90;;
70997;SDS011;58663;52.040;4.634;2023-07-30T11:20:37;7.35;;;1.80;;
70997;SDS011;58663;52.040;4.634;2023-07-30T11:23:07;12.23;;;1.70;;
70997;SDS011;58663;52.040;4.634;2023-07-30T11:25:45;7.55;;;1.75;;
70997;SDS011;58663;52.040;4.634;2023-07-30T11:28:11;6.25;;;1.63;;
70997;SDS011;58663;52.040;4.634;2023-07-30T11:30:36;7.90;;;1.60;;
70997;SDS011;58663;52.040;4.634;2023-07-30T11:33:02;8.15;;;1.40;;
70997;SDS011;58663;52.040;4.634;2023-07-30T11:35:27;7.07;;;1.40;;
70997;SDS011;58663;52.040;4.634;2023-07-30T11:37:53;9.85;;;1.85;;
70997;SDS011;58663;52.040;4.634;2023-07-30T11:40:18;8.07;;;1.52;;
70997;SDS011;58663;52.040;4.634;2023-07-30T11:42:44;12.15;;;2.17;;
70997;SDS011;58663;52.040;4.634;2023-07-30T11:45:19;6.82;;;1.45;;
70997;SDS011;58663;52.040;4.634;2023-07-30T11:47:46;12.93;;;1.80;;
70997;SDS011;58663;52.040;4.634;2023-07-30T11:50:12;5.32;;;1.35;;
70997;SDS011;58663;52.040;4.634;2023-07-30T11:52:50;6.85;;;1.48;;
70997;SDS011;58663;52.040;4.634;2023-07-30T11:55:17;6.93;;;1.48;;
70997;SDS011;58663;52.040;4.634;2023-07-30T11:57:42;10.52;;;1.77;;
70997;SDS011;58663;52.040;4.634;2023-07-30T12:00:07;6.32;;;1.45;;
70997;SDS011;58663;52.040;4.634;2023-07-30T12:02:33;6.82;;;1.65;;
70997;SDS011;58663;52.040;4.634;2023-07-30T12:04:59;8.27;;;1.40;;
70997;SDS011;58663;52.040;4.634;2023-07-30T12:07:24;5.45;;;1.77;;
70997;SDS011;58663;52.040;4.634;2023-07-30T12:09:50;8.13;;;1.77;;
70997;SDS011;58663;52.040;4.634;2023-07-30T12:12:15;6.45;;;1.20;;
70997;SDS011;58663;52.040;4.634;2023-07-30T12:17:10;6.13;;;1.88;;
70997;SDS011;58663;52.040;4.634;2023-07-30T12:19:35;5.90;;;1.30;;
70997;SDS011;58663;52.040;4.634;2023-07-30T12:22:01;7.03;;;1.30;;
70997;SDS011;58663;52.040;4.634;2023-07-30T12:24:27;10.30;;;1.90;;
70997;SDS011;58663;52.040;4.634;2023-07-30T12:26:52;5.60;;;1.55;;
70997;SDS011;58663;52.040;4.634;2023-07-30T12:29:17;6.82;;;1.90;;
70997;SDS011;58663;52.040;4.634;2023-07-30T12:31:43;9.02;;;1.10;;
70997;SDS011;58663;52.040;4.634;2023-07-30T12:34:09;5.55;;;1.45;;
70997;SDS011;58663;52.040;4.634;2023-07-30T12:36:35;7.90;;;1.52;;
70997;SDS011;58663;52.040;4.634;2023-07-30T12:39:00;5.45;;;1.58;;
70997;SDS011;58663;52.040;4.634;2023-07-30T12:41:25;6.43;;;1.58;;
70997;SDS011;58663;52.040;4.634;2023-07-30T12:43:54;9.40;;;1.55;;
70997;SDS011;58663;52.040;4.634;2023-07-30T12:46:23;9.13;;;1.20;;
70997;SDS011;58663;52.040;4.634;2023-07-30T12:48:48;7.43;;;1.63;;
70997;SDS011;58663;52.040;4.634;2023-07-30T12:51:14;8.10;;;1.67;;
70997;SDS011;58663;52.040;4.634;2023-07-30T12:53:39;7.10;;;1.20;;
70997;SDS011;58663;52.040;4.634;2023-07-30T12:56:05;9.88;;;1.60;;
70997;SDS011;58663;52.040;4.634;2023-07-30T12:58:30;7.95;;;1.75;;
70997;SDS011;58663;52.040;4.634;2023-07-30T13:00:55;7.88;;;1.40;;
70997;SDS011;58663;52.040;4.634;2023-07-30T13:03:21;5.18;;;1.33;;
70997;SDS011;58663;52.040;4.634;2023-07-30T13:05:46;3.25;;;1.33;;
70997;SDS011;58663;52.040;4.634;2023-07-30T13:08:12;14.55;;;2.17;;
70997;SDS011;58663;52.040;4.634;2023-07-30T13:10:37;10.18;;;1.67;;
70997;SDS011;58663;52.040;4.634;2023-07-30T13:13:02;8.52;;;1.38;;
70997;SDS011;58663;52.040;4.634;2023-07-30T13:15:28;11.20;;;1.85;;
70997;SDS011;58663;52.040;4.634;2023-07-30T13:17:53;7.25;;;1.33;;
70997;SDS011;58663;52.040;4.634;2023-07-30T13:20:19;18.33;;;1.73;;
70997;SDS011;58663;52.040;4.634;2023-07-30T13:22:44;9.63;;;2.20;;
70997;SDS011;58663;52.040;4.634;2023-07-30T13:25:10;12.32;;;1.63;;
70997;SDS011;58663;52.040;4.634;2023-07-30T13:27:35;7.80;;;1.45;;
70997;SDS011;58663;52.040;4.634;2023-07-30T13:30:00;13.10;;;1.98;;
70997;SDS011;58663;52.040;4.634;2023-07-30T13:32:26;9.00;;;1.73;;
70997;SDS011;58663;52.040;4.634;2023-07-30T13:34:51;8.98;;;2.00;;
70997;SDS011;58663;52.040;4.634;2023-07-30T13:37:16;8.80;;;2.10;;
70997;SDS011;58663;52.040;4.634;2023-07-30T13:39:42;12.23;;;2.45;;
70997;SDS011;58663;52.040;4.634;2023-07-30T13:42:07;7.55;;;1.77;;
70997;SDS011;58663;52.040;4.634;2023-07-30T13:44:32;13.88;;;1.90;;
70997;SDS011;58663;52.040;4.634;2023-07-30T13:46:58;10.77;;;1.85;;
70997;SDS011;58663;52.040;4.634;2023-07-30T13:49:23;11.70;;;2.10;;
70997;SDS011;58663;52.040;4.634;2023-07-30T13:51:49;7.40;;;2.40;;
70997;SDS011;58663;52.040;4.634;2023-07-30T13:54:14;12.18;;;2.25;;
70997;SDS011;58663;52.040;4.634;2023-07-30T13:56:40;17.73;;;2.58;;
70997;SDS011;58663;52.040;4.634;2023-07-30T13:59:05;8.60;;;2.35;;
70997;SDS011;58663;52.040;4.634;2023-07-30T14:01:30;11.15;;;2.40;;
70997;SDS011;58663;52.040;4.634;2023-07-30T14:03:56;13.40;;;2.20;;
70997;SDS011;58663;52.040;4.634;2023-07-30T14:06:21;18.05;;;3.17;;
70997;SDS011;58663;52.040;4.634;2023-07-30T14:08:46;8.98;;;2.17;;
70997;SDS011;58663;52.040;4.634;2023-07-30T14:11:12;11.15;;;2.67;;
70997;SDS011;58663;52.040;4.634;2023-07-30T14:13:37;9.90;;;2.38;;
70997;SDS011;58663;52.040;4.634;2023-07-30T14:16:03;9.85;;;2.25;;
70997;SDS011;58663;52.040;4.634;2023-07-30T14:18:28;8.15;;;2.30;;
70997;SDS011;58663;52.040;4.634;2023-07-30T14:20:53;11.93;;;2.58;;
70997;SDS011;58663;52.040;4.634;2023-07-30T14:23:19;9.27;;;2.13;;
70997;SDS011;58663;52.040;4.634;2023-07-30T14:25:44;10.18;;;2.10;;
70997;SDS011;58663;52.040;4.634;2023-07-30T14:28:10;13.57;;;2.80;;
70997;SDS011;58663;52.040;4.634;2023-07-30T14:30:35;14.05;;;2.58;;
70997;SDS011;58663;52.040;4.634;2023-07-30T14:33:01;15.65;;;3.03;;
70997;SDS011;58663;52.040;4.634;2023-07-30T14:35:27;14.02;;;2.63;;
70997;SDS011;58663;52.040;4.634;2023-07-30T14:37:52;13.23;;;2.60;;